Time,TemperatureF,DewpointF,PressureIn,WindDirection,WindDirectionDegrees,WindSpeedMPH,WindSpeedGustMPH,Humidity,HourlyPrecipIn,Conditions,Clouds,dailyrainin,SoftwareType,DateUTC
2013-04-24 00:02:00,59.1,51.6,30.30,ENE,68,0.0,0.0,76,0.00,,,0.00,WUHU216HW,2013-04-23 22:02:00,
2013-04-24 00:07:00,58.8,51.2,30.29,East,90,0.0,1.3,76,0.00,,,0.00,WUHU216HW,2013-04-23 22:07:00,
2013-04-24 00:12:00,58.8,51.2,30.30,SSW,203,0.0,1.3,76,0.00,,,0.00,WUHU216HW,2013-04-23 22:12:00,
2013-04-24 00:17:00,58.8,51.2,30.29,ENE,68,1.1,1.1,76,0.00,,,0.00,WUHU216HW,2013-04-23 22:17:00,
2013-04-24 00:22:00,58.4,50.9,30.29,SE,135,1.4,1.5,76,0.00,,,0.00,WUHU216HW,2013-04-23 22:22:00,
2013-04-24 00:28:00,58.2,50.7,30.29,SE,135,2.4,2.4,76,0.00,,,0.00,WUHU216HW,2013-04-23 22:28:00,
2013-04-24 00:33:00,58.4,50.9,30.29,ENE,68,0.0,2.4,76,0.00,,,0.00,WUHU216HW,2013-04-23 22:33:00,
2013-04-24 00:38:00,58.1,50.5,30.30,South,180,0.0,2.0,76,0.00,,,0.00,WUHU216HW,2013-04-23 22:38:00,
2013-04-24 00:43:00,57.9,50.3,30.30,SSE,158,0.8,2.0,76,0.00,,,0.00,WUHU216HW,2013-04-23 22:43:00,
2013-04-24 00:48:00,57.9,50.3,30.30,East,90,0.0,0.8,76,0.00,,,0.00,WUHU216HW,2013-04-23 22:48:00,
2013-04-24 00:53:00,57.9,50.3,30.30,SSE,158,0.0,0.0,76,0.00,,,0.00,WUHU216HW,2013-04-23 22:53:00,
2013-04-24 00:58:00,57.7,50.1,30.30,ENE,68,0.0,0.0,76,0.00,,,0.00,WUHU216HW,2013-04-23 22:58:00,
2013-04-24 01:03:00,57.5,50.0,30.30,ENE,68,0.0,1.1,76,0.00,,,0.00,WUHU216HW,2013-04-23 23:03:00,
2013-04-24 01:08:00,57.3,49.8,30.30,ESE,113,2.4,2.4,76,0.00,,,0.00,WUHU216HW,2013-04-23 23:08:00,
2013-04-24 01:13:00,57.3,49.8,30.30,East,90,2.2,2.4,76,0.00,,,0.00,WUHU216HW,2013-04-23 23:13:00,
2013-04-24 01:18:00,57.0,49.4,30.29,SE,135,1.5,2.2,76,0.00,,,0.00,WUHU216HW,2013-04-23 23:18:00,
2013-04-24 01:23:00,57.3,49.8,30.28,SE,135,0.0,2.2,76,0.00,,,0.00,WUHU216HW,2013-04-23 23:23:00,
2013-04-24 01:28:00,57.3,49.8,30.29,East,90,0.0,2.2,76,0.00,,,0.00,WUHU216HW,2013-04-23 23:28:00,
2013-04-24 01:33:00,57.0,49.4,30.29,ESE,113,1.3,1.3,76,0.00,,,0.00,WUHU216HW,2013-04-23 23:33:00,
2013-04-24 01:38:00,56.8,49.2,30.29,ESE,113,1.5,1.5,76,0.00,,,0.00,WUHU216HW,2013-04-23 23:38:00,
2013-04-24 01:43:00,56.8,49.2,30.29,South,180,0.0,1.7,76,0.00,,,0.00,WUHU216HW,2013-04-23 23:43:00,
2013-04-24 01:48:00,57.0,49.4,30.28,West,270,0.0,1.7,76,0.00,,,0.00,WUHU216HW,2013-04-23 23:48:00,
2013-04-24 01:53:00,56.8,49.2,30.28,ESE,113,0.0,0.0,76,0.00,,,0.00,WUHU216HW,2013-04-23 23:53:00,
2013-04-24 01:58:00,56.8,49.2,30.28,West,270,0.0,0.0,76,0.00,,,0.00,WUHU216HW,2013-04-23 23:58:00,
2013-04-24 02:03:00,56.4,48.9,30.29,NW,315,0.0,0.0,76,0.00,,,0.00,WUHU216HW,2013-04-24 00:03:00,
2013-04-24 02:08:00,56.4,48.9,30.28,South,180,0.0,0.0,76,0.00,,,0.00,WUHU216HW,2013-04-24 00:08:00,
2013-04-24 02:13:00,56.4,48.9,30.29,SSW,203,0.0,0.0,76,0.00,,,0.00,WUHU216HW,2013-04-24 00:13:00,
2013-04-24 02:19:00,56.4,48.5,30.28,SSW,203,1.3,1.3,75,0.00,,,0.00,WUHU216HW,2013-04-24 00:19:00,
2013-04-24 02:24:00,57.0,49.2,30.28,South,180,0.0,3.1,76,0.00,,,0.00,WUHU216HW,2013-04-24 00:24:00,
2013-04-24 02:29:00,56.8,49.2,30.28,ENE,68,0.0,3.1,76,0.00,,,0.00,WUHU216HW,2013-04-24 00:29:00,
2013-04-24 02:34:00,56.8,49.2,30.28,NE,45,0.0,0.0,76,0.00,,,0.00,WUHU216HW,2013-04-24 00:34:00,
2013-04-24 02:39:00,56.6,49.1,30.29,East,90,0.0,0.0,76,0.00,,,0.00,WUHU216HW,2013-04-24 00:39:00,
2013-04-24 02:44:00,56.4,48.9,30.29,ENE,68,0.0,0.0,76,0.00,,,0.00,WUHU216HW,2013-04-24 00:44:00,
2013-04-24 02:49:00,56.4,48.9,30.29,SW,225,0.6,0.6,76,0.00,,,0.00,WUHU216HW,2013-04-24 00:49:00,
2013-04-24 02:54:00,56.8,49.2,30.29,NW,315,0.0,2.0,76,0.00,,,0.00,WUHU216HW,2013-04-24 00:54:00,
2013-04-24 02:59:00,56.6,49.1,30.29,NNE,23,0.0,2.0,76,0.00,,,0.00,WUHU216HW,2013-04-24 00:59:00,
2013-04-24 03:04:00,56.4,48.9,30.29,NW,315,0.8,0.8,76,0.00,,,0.00,WUHU216HW,2013-04-24 01:04:00,
2013-04-24 03:10:00,56.1,48.5,30.29,East,90,0.0,0.8,76,0.00,,,0.00,WUHU216HW,2013-04-24 01:10:00,
2013-04-24 03:15:00,56.1,48.2,30.29,North,0,1.1,1.1,75,0.00,,,0.00,WUHU216HW,2013-04-24 01:15:00,
2013-04-24 03:20:00,55.9,48.0,30.29,NE,45,0.0,1.7,75,0.00,,,0.00,WUHU216HW,2013-04-24 01:20:00,
2013-04-24 03:25:00,55.9,47.9,30.29,SE,135,1.7,1.7,75,0.00,,,0.00,WUHU216HW,2013-04-24 01:25:00,
2013-04-24 03:30:00,56.1,48.2,30.30,SSW,203,2.0,2.6,75,0.00,,,0.00,WUHU216HW,2013-04-24 01:30:00,
2013-04-24 03:35:00,56.3,48.7,30.30,SW,225,0.8,2.6,76,0.00,,,0.00,WUHU216HW,2013-04-24 01:35:00,
2013-04-24 03:40:00,56.8,49.2,30.30,SW,225,0.0,1.1,76,0.00,,,0.00,WUHU216HW,2013-04-24 01:40:00,
2013-04-24 03:45:00,56.6,49.1,30.30,North,0,2.0,2.0,76,0.00,,,0.00,WUHU216HW,2013-04-24 01:45:00,
2013-04-24 03:50:00,56.3,48.7,30.30,ENE,68,1.3,2.0,76,0.00,,,0.00,WUHU216HW,2013-04-24 01:50:00,
2013-04-24 03:55:00,55.9,48.4,30.30,NNE,23,0.0,1.3,76,0.00,,,0.00,WUHU216HW,2013-04-24 01:55:00,
2013-04-24 04:00:00,55.7,48.2,30.29,ENE,68,2.0,2.6,76,0.00,,,0.00,WUHU216HW,2013-04-24 02:00:00,
2013-04-24 04:05:00,55.5,48.0,30.30,East,90,0.0,2.6,76,0.00,,,0.00,WUHU216HW,2013-04-24 02:05:00,
2013-04-24 04:10:00,55.5,48.0,30.30,SW,225,0.0,0.0,76,0.00,,,0.00,WUHU216HW,2013-04-24 02:10:00,
2013-04-24 04:15:00,55.5,48.0,30.30,South,180,0.0,0.0,76,0.00,,,0.00,WUHU216HW,2013-04-24 02:15:00,
2013-04-24 04:21:00,55.5,48.0,30.30,ESE,113,0.0,0.0,76,0.00,,,0.00,WUHU216HW,2013-04-24 02:21:00,
2013-04-24 04:26:00,55.2,47.3,30.30,East,84,1.0,2.2,75,0.00,,,0.00,WUHU216HW,2013-04-24 02:26:00,
2013-04-24 04:31:00,55.0,47.2,30.29,NNW,338,0.6,2.2,75,0.00,,,0.00,WUHU216HW,2013-04-24 02:31:00,
2013-04-24 04:36:00,55.2,47.3,30.30,SSE,158,0.0,2.2,75,0.00,,,0.00,WUHU216HW,2013-04-24 02:36:00,
2013-04-24 04:41:00,55.2,47.3,30.29,SSW,203,3.5,3.5,75,0.00,,,0.00,WUHU216HW,2013-04-24 02:41:00,
2013-04-24 04:46:00,55.5,48.0,30.29,SE,135,9.1,9.1,76,0.00,,,0.00,WUHU216HW,2013-04-24 02:46:00,
2013-04-24 04:51:00,57.9,49.6,30.29,South,180,5.8,10.5,72,0.00,,,0.00,WUHU216HW,2013-04-24 02:51:00,
2013-04-24 04:57:00,58.4,49.6,30.29,SSE,158,5.5,10.5,72,0.00,,,0.00,WUHU216HW,2013-04-24 02:57:00,
2013-04-24 05:02:00,59.3,49.2,30.29,SSW,203,5.1,6.7,69,0.00,,,0.00,WUHU216HW,2013-04-24 03:02:00,
2013-04-24 05:07:00,59.5,49.4,30.29,SSE,158,7.3,8.0,69,0.00,,,0.00,WUHU216HW,2013-04-24 03:07:00,
2013-04-24 05:12:00,59.9,48.5,30.30,SE,126,5.3,8.0,66,0.00,,,0.00,WUHU216HW,2013-04-24 03:12:00,
2013-04-24 05:17:00,60.6,48.8,30.29,SSW,203,11.1,11.1,65,0.00,,,0.00,WUHU216HW,2013-04-24 03:17:00,
2013-04-24 05:22:00,60.9,47.9,30.29,ESE,114,5.8,14.3,62,0.00,,,0.00,WUHU216HW,2013-04-24 03:22:00,
2013-04-24 05:27:00,61.3,47.8,30.30,SE,135,10.2,14.3,61,0.00,,,0.00,WUHU216HW,2013-04-24 03:27:00,
2013-04-24 05:33:00,60.9,48.3,30.30,SW,225,0.8,10.2,63,0.00,,,0.00,WUHU216HW,2013-04-24 03:33:00,
2013-04-24 05:38:00,60.0,47.4,30.30,SE,143,7.1,9.1,63,0.00,,,0.00,WUHU216HW,2013-04-24 03:38:00,
2013-04-24 05:43:00,61.1,47.4,30.30,SE,142,6.0,9.1,61,0.00,,,0.00,WUHU216HW,2013-04-24 03:43:00,
2013-04-24 05:48:00,60.4,47.8,30.30,West,270,3.1,9.1,63,0.00,,,0.00,WUHU216HW,2013-04-24 03:48:00,
2013-04-24 05:54:00,60.0,47.8,30.30,West,270,2.2,4.6,64,0.00,,,0.00,WUHU216HW,2013-04-24 03:54:00,
2013-04-24 05:59:00,59.1,47.8,30.30,SW,225,4.6,4.6,66,0.00,,,0.00,WUHU216HW,2013-04-24 03:59:00,
2013-04-24 06:01:00,58.8,47.8,30.30,WSW,240,3.0,4.6,67,0.00,,,0.00,WUHU216HW,2013-04-24 04:01:00,
2013-04-24 06:06:00,58.1,47.9,30.30,SW,225,2.2,4.6,69,0.00,,,0.00,WUHU216HW,2013-04-24 04:06:00,
2013-04-24 06:11:00,57.9,48.2,30.30,WNW,293,0.6,2.9,70,0.00,,,0.00,WUHU216HW,2013-04-24 04:11:00,
2013-04-24 06:16:00,57.7,48.3,30.30,NNW,338,0.8,0.8,71,0.00,,,0.00,WUHU216HW,2013-04-24 04:16:00,
2013-04-24 06:21:00,57.3,48.0,30.30,SW,225,1.3,1.3,71,0.00,,,0.00,WUHU216HW,2013-04-24 04:21:00,
2013-04-24 06:26:00,57.0,48.0,30.31,SW,225,2.4,2.4,72,0.00,,,0.00,WUHU216HW,2013-04-24 04:26:00,
2013-04-24 06:31:00,57.0,48.3,30.31,South,190,2.2,2.9,73,0.00,,,0.00,WUHU216HW,2013-04-24 04:31:00,
2013-04-24 06:36:00,56.8,48.2,30.31,West,270,0.0,2.9,73,0.00,,,0.00,WUHU216HW,2013-04-24 04:36:00,
2013-04-24 06:41:00,56.8,48.2,30.32,WNW,299,0.9,1.5,73,0.00,,,0.00,WUHU216HW,2013-04-24 04:41:00,
2013-04-24 06:47:00,56.6,47.8,30.32,SW,225,1.3,1.5,73,0.00,,,0.00,WUHU216HW,2013-04-24 04:47:00,
2013-04-24 06:52:00,56.6,48.0,30.31,South,180,0.0,1.3,73,0.00,,,0.00,WUHU216HW,2013-04-24 04:52:00,
2013-04-24 06:57:00,56.4,48.2,30.32,East,90,0.0,1.5,74,0.00,,,0.00,WUHU216HW,2013-04-24 04:57:00,
2013-04-24 07:02:00,56.1,47.8,30.32,WSW,248,0.0,1.5,74,0.00,,,0.00,WUHU216HW,2013-04-24 05:02:00,
2013-04-24 07:07:00,55.9,48.0,30.33,SSW,203,0.0,2.2,75,0.00,,,0.00,WUHU216HW,2013-04-24 05:07:00,
2013-04-24 07:12:00,56.1,48.2,30.32,ENE,68,1.5,2.2,75,0.00,,,0.00,WUHU216HW,2013-04-24 05:12:00,
2013-04-24 07:17:00,56.6,48.7,30.33,ESE,113,0.0,1.5,75,0.00,,,0.00,WUHU216HW,2013-04-24 05:17:00,
2013-04-24 07:22:00,57.0,48.7,30.33,ESE,113,0.0,0.0,74,0.00,,,0.00,WUHU216HW,2013-04-24 05:22:00,
2013-04-24 07:27:00,57.3,49.1,30.33,NE,45,1.3,1.3,74,0.00,,,0.00,WUHU216HW,2013-04-24 05:27:00,
2013-04-24 07:32:00,57.5,49.2,30.33,SSE,158,1.5,1.5,74,0.00,,,0.00,WUHU216HW,2013-04-24 05:32:00,
2013-04-24 07:37:00,57.7,49.4,30.33,NW,315,0.0,1.5,74,0.00,,,0.00,WUHU216HW,2013-04-24 05:37:00,
2013-04-24 07:42:00,57.9,49.6,30.33,South,180,0.0,0.0,74,0.00,,,0.00,WUHU216HW,2013-04-24 05:42:00,
2013-04-24 07:47:00,58.1,49.8,30.33,SSW,203,0.0,2.2,74,0.00,,,0.00,WUHU216HW,2013-04-24 05:47:00,
2013-04-24 07:52:00,59.5,50.5,30.34,SE,135,0.0,2.2,72,0.00,,,0.00,WUHU216HW,2013-04-24 05:52:00,
2013-04-24 07:57:00,60.8,51.2,30.33,NNE,23,0.0,0.0,70,0.00,,,0.00,WUHU216HW,2013-04-24 05:57:00,
2013-04-24 08:02:00,60.6,50.9,30.34,NNW,338,0.0,0.0,70,0.00,,,0.00,WUHU216HW,2013-04-24 06:02:00,
2013-04-24 08:07:00,61.7,51.0,30.34,SW,225,0.0,0.0,68,0.00,,,0.00,WUHU216HW,2013-04-24 06:07:00,
2013-04-24 08:12:00,62.9,51.6,30.34,SW,225,0.0,0.0,67,0.00,,,0.00,WUHU216HW,2013-04-24 06:12:00,
2013-04-24 08:17:00,62.9,51.3,30.34,SW,225,0.0,0.0,66,0.00,,,0.00,WUHU216HW,2013-04-24 06:17:00,
2013-04-24 08:22:00,62.4,50.4,30.35,SSE,158,2.2,2.2,65,0.00,,,0.00,WUHU216HW,2013-04-24 06:22:00,
2013-04-24 08:28:00,62.2,50.4,30.35,SSW,203,2.9,2.9,65,0.00,,,0.00,WUHU216HW,2013-04-24 06:28:00,
2013-04-24 08:33:00,61.8,50.3,30.35,SSW,203,2.4,2.9,66,0.00,,,0.00,WUHU216HW,2013-04-24 06:33:00,
2013-04-24 08:38:00,62.4,50.6,30.35,SSW,203,0.0,2.6,66,0.00,,,0.00,WUHU216HW,2013-04-24 06:38:00,
2013-04-24 08:43:00,64.0,51.7,30.35,ESE,113,0.0,0.0,64,0.00,,,0.00,WUHU216HW,2013-04-24 06:43:00,
2013-04-24 08:48:00,64.2,50.4,30.35,WSW,248,1.1,1.1,61,0.00,,,0.00,WUHU216HW,2013-04-24 06:48:00,
2013-04-24 08:53:00,64.0,50.2,30.35,North,0,0.0,1.1,61,0.00,,,0.00,WUHU216HW,2013-04-24 06:53:00,
2013-04-24 08:58:00,64.2,50.0,30.35,West,270,0.6,1.1,60,0.00,,,0.00,WUHU216HW,2013-04-24 06:58:00,
2013-04-24 09:03:00,64.5,50.7,30.35,WSW,248,0.0,0.6,61,0.00,,,0.00,WUHU216HW,2013-04-24 07:03:00,
2013-04-24 09:08:00,65.4,51.0,30.35,NW,315,2.2,2.2,60,0.00,,,0.00,WUHU216HW,2013-04-24 07:08:00,
2013-04-24 09:13:00,65.3,50.5,30.35,West,270,3.5,3.5,59,0.00,,,0.00,WUHU216HW,2013-04-24 07:13:00,
2013-04-24 09:18:00,64.9,49.7,30.35,West,270,1.3,3.5,58,0.00,,,0.00,WUHU216HW,2013-04-24 07:18:00,
2013-04-24 09:23:00,65.1,49.9,30.35,South,180,0.6,3.1,58,0.00,,,0.00,WUHU216HW,2013-04-24 07:23:00,
2013-04-24 09:28:00,66.7,50.5,30.36,NE,45,0.0,3.1,56,0.00,,,0.00,WUHU216HW,2013-04-24 07:28:00,
2013-04-24 09:33:00,68.1,50.8,30.35,SSW,203,1.3,1.3,54,0.00,,,0.00,WUHU216HW,2013-04-24 07:33:00,
2013-04-24 09:38:00,68.7,50.8,30.35,South,180,1.7,1.7,53,0.00,,,0.00,WUHU216HW,2013-04-24 07:38:00,
2013-04-24 09:43:00,68.9,50.8,30.36,SSE,158,1.5,1.7,53,0.00,,,0.00,WUHU216HW,2013-04-24 07:43:00,
2013-04-24 09:48:00,69.9,51.0,30.36,NW,315,0.0,1.7,51,0.00,,,0.00,WUHU216HW,2013-04-24 07:48:00,
2013-04-24 09:53:00,69.6,49.0,30.36,North,0,1.5,1.5,49,0.00,,,0.00,WUHU216HW,2013-04-24 07:53:00,
2013-04-24 09:58:00,69.6,49.6,30.36,SW,225,1.9,3.1,49,0.00,,,0.00,WUHU216HW,2013-04-24 07:58:00,
2013-04-24 10:03:00,68.7,48.7,30.36,West,270,1.3,3.8,49,0.00,,,0.00,WUHU216HW,2013-04-24 08:03:00,
2013-04-24 10:08:00,68.5,49.2,30.35,SW,225,2.0,3.8,50,0.00,,,0.00,WUHU216HW,2013-04-24 08:08:00,
2013-04-24 10:13:00,68.7,48.7,30.35,SSE,158,2.0,2.0,49,0.00,,,0.00,WUHU216HW,2013-04-24 08:13:00,
2013-04-24 10:18:00,69.6,49.0,30.36,NW,315,0.0,2.0,48,0.00,,,0.00,WUHU216HW,2013-04-24 08:18:00,
2013-04-24 10:23:00,69.9,49.3,30.36,SW,225,0.0,1.5,48,0.00,,,0.00,WUHU216HW,2013-04-24 08:23:00,
2013-04-24 10:28:00,70.3,49.0,30.35,SE,135,2.2,2.4,47,0.00,,,0.00,WUHU216HW,2013-04-24 08:28:00,
2013-04-24 10:33:00,70.8,49.5,30.36,WSW,249,1.6,2.4,47,0.00,,,0.00,WUHU216HW,2013-04-24 08:33:00,
2013-04-24 10:38:00,70.5,48.6,30.36,WSW,255,2.2,2.9,46,0.00,,,0.00,WUHU216HW,2013-04-24 08:38:00,
2013-04-24 10:43:00,70.5,48.6,30.36,SE,135,3.3,3.3,46,0.00,,,0.00,WUHU216HW,2013-04-24 08:43:00,
2013-04-24 10:48:00,70.5,48.0,30.36,ENE,68,2.6,3.3,45,0.00,,,0.00,WUHU216HW,2013-04-24 08:48:00,
2013-04-24 10:53:00,70.7,47.6,30.36,East,90,2.0,3.5,44,0.00,,,0.00,WUHU216HW,2013-04-24 08:53:00,
2013-04-24 10:58:00,71.4,47.4,30.36,North,0,0.0,4.0,43,0.00,,,0.00,WUHU216HW,2013-04-24 08:58:00,
2013-04-24 11:03:00,71.2,47.0,30.36,North,0,2.0,4.0,42,0.00,,,0.00,WUHU216HW,2013-04-24 09:03:00,
2013-04-24 11:08:00,71.9,47.5,30.36,NE,45,4.9,4.9,42,0.00,,,0.00,WUHU216HW,2013-04-24 09:08:00,
2013-04-24 11:13:00,72.1,47.7,30.36,East,90,1.7,4.9,42,0.00,,,0.00,WUHU216HW,2013-04-24 09:13:00,
2013-04-24 11:18:00,72.5,47.4,30.36,NE,45,2.4,2.6,41,0.00,,,0.00,WUHU216HW,2013-04-24 09:18:00,
2013-04-24 11:23:00,72.5,48.6,30.36,NE,45,7.6,7.6,43,0.00,,,0.00,WUHU216HW,2013-04-24 09:23:00,
2013-04-24 11:28:00,72.6,48.2,30.35,ESE,113,2.9,7.6,42,0.00,,,0.00,WUHU216HW,2013-04-24 09:28:00,
2013-04-24 11:33:00,73.2,48.6,30.35,SW,225,3.3,3.3,42,0.00,,,0.00,WUHU216HW,2013-04-24 09:33:00,
2013-04-24 11:38:00,73.2,48.0,30.35,SSW,197,1.1,3.3,41,0.00,,,0.00,WUHU216HW,2013-04-24 09:38:00,
2013-04-24 11:43:00,73.9,48.7,30.35,SE,135,0.0,4.9,41,0.00,,,0.00,WUHU216HW,2013-04-24 09:43:00,
2013-04-24 11:48:00,74.4,47.8,30.35,ENE,68,1.3,4.9,39,0.00,,,0.00,WUHU216HW,2013-04-24 09:48:00,
2013-04-24 11:53:00,75.0,48.3,30.35,SE,135,0.0,4.2,39,0.00,,,0.00,WUHU216HW,2013-04-24 09:53:00,
2013-04-24 11:58:00,75.0,49.1,30.34,SE,135,7.1,12.7,40,0.00,,,0.00,WUHU216HW,2013-04-24 09:58:00,
2013-04-24 12:03:00,74.3,49.6,30.35,ENE,75,5.8,12.7,42,0.00,,,0.00,WUHU216HW,2013-04-24 10:03:00,
2013-04-24 12:08:00,73.9,49.3,30.35,East,94,9.6,11.1,42,0.00,,,0.00,WUHU216HW,2013-04-24 10:08:00,
2013-04-24 12:13:00,74.1,49.4,30.35,East,80,3.5,11.1,41,0.00,,,0.00,WUHU216HW,2013-04-24 10:13:00,
2013-04-24 12:18:00,75.0,48.3,30.34,ESE,112,5.9,7.8,40,0.00,,,0.00,WUHU216HW,2013-04-24 10:18:00,
2013-04-24 12:23:00,75.5,48.8,30.35,ENE,68,11.8,11.8,39,0.00,,,0.00,WUHU216HW,2013-04-24 10:23:00,
2013-04-24 12:28:00,75.7,49.7,30.34,East,90,12.7,12.7,40,0.00,,,0.00,WUHU216HW,2013-04-24 10:28:00,
2013-04-24 12:33:00,75.7,50.9,30.34,ESE,113,12.3,12.7,42,0.00,,,0.00,WUHU216HW,2013-04-24 10:33:00,
2013-04-24 12:38:00,75.7,49.0,30.34,East,100,7.9,12.3,39,0.00,,,0.00,WUHU216HW,2013-04-24 10:38:00,
2013-04-24 12:43:00,76.1,50.7,30.34,ESE,110,8.3,12.3,41,0.00,,,0.00,WUHU216HW,2013-04-24 10:43:00,
2013-04-24 12:48:00,75.9,50.5,30.34,ENE,68,13.4,13.4,41,0.00,,,0.00,WUHU216HW,2013-04-24 10:48:00,
2013-04-24 12:53:00,76.2,50.8,30.34,ENE,68,11.1,13.4,41,0.00,,,0.00,WUHU216HW,2013-04-24 10:53:00,
2013-04-24 12:58:00,75.5,49.6,30.34,East,99,5.8,15.6,40,0.00,,,0.00,WUHU216HW,2013-04-24 10:58:00,
2013-04-24 13:03:00,75.9,49.9,30.34,ENE,68,3.1,15.6,40,0.00,,,0.00,WUHU216HW,2013-04-24 11:03:00,
2013-04-24 13:08:00,75.7,49.0,30.35,ESE,116,8.4,11.1,39,0.00,,,0.00,WUHU216HW,2013-04-24 11:08:00,
2013-04-24 13:13:00,75.3,49.4,30.35,ENE,68,7.4,11.1,40,0.00,,,0.00,WUHU216HW,2013-04-24 11:13:00,
2013-04-24 13:18:00,75.7,50.3,30.34,East,90,12.7,14.0,41,0.00,,,0.00,WUHU216HW,2013-04-24 11:18:00,
2013-04-24 13:23:00,75.9,49.9,30.34,ENE,78,9.4,14.0,40,0.00,,,0.00,WUHU216HW,2013-04-24 11:23:00,
2013-04-24 13:28:00,76.6,49.0,30.34,ESE,116,2.8,9.6,38,0.00,,,0.00,WUHU216HW,2013-04-24 11:28:00,
2013-04-24 13:33:00,76.6,48.3,30.34,ENE,68,12.7,12.7,37,0.00,,,0.00,WUHU216HW,2013-04-24 11:33:00,
2013-04-24 13:38:00,76.1,48.5,30.34,ENE,68,8.9,12.7,38,0.00,,,0.00,WUHU216HW,2013-04-24 11:38:00,
2013-04-24 13:43:00,76.8,50.7,30.34,East,87,6.0,10.0,40,0.00,,,0.00,WUHU216HW,2013-04-24 11:43:00,
2013-04-24 13:48:00,77.3,49.6,30.34,NE,45,4.9,10.9,38,0.00,,,0.00,WUHU216HW,2013-04-24 11:48:00,
2013-04-24 13:53:00,77.3,49.6,30.34,ESE,113,6.0,10.9,38,0.00,,,0.00,WUHU216HW,2013-04-24 11:53:00,
2013-04-24 13:58:00,77.7,49.2,30.34,ENE,68,9.6,9.6,37,0.00,,,0.00,WUHU216HW,2013-04-24 11:58:00,
2013-04-24 14:03:00,77.5,50.6,30.34,North,0,3.8,9.6,39,0.00,,,0.00,WUHU216HW,2013-04-24 12:03:00,
2013-04-24 14:08:00,78.6,49.2,30.34,ENE,68,8.7,9.1,36,0.00,,,0.00,WUHU216HW,2013-04-24 12:08:00,
2013-04-24 14:13:00,78.4,49.7,30.34,SE,135,7.6,10.2,36,0.00,,,0.00,WUHU216HW,2013-04-24 12:13:00,
2013-04-24 14:18:00,78.6,49.2,30.33,SE,135,2.6,10.2,36,0.00,,,0.00,WUHU216HW,2013-04-24 12:18:00,
2013-04-24 14:23:00,78.6,49.2,30.33,East,90,5.1,6.4,36,0.00,,,0.00,WUHU216HW,2013-04-24 12:23:00,
2013-04-24 14:28:00,78.6,49.2,30.33,ESE,113,8.8,9.8,36,0.00,,,0.00,WUHU216HW,2013-04-24 12:28:00,
2013-04-24 14:33:00,78.6,50.0,30.33,East,90,11.4,11.4,37,0.00,,,0.00,WUHU216HW,2013-04-24 12:33:00,
2013-04-24 14:38:00,78.6,46.9,30.33,ESE,113,6.4,11.4,33,0.00,,,0.00,WUHU216HW,2013-04-24 12:38:00,
2013-04-24 14:45:00,78.8,49.4,30.32,ENE,68,9.8,13.1,36,0.00,,,0.00,WUHU216HW,2013-04-24 12:45:00,
2013-04-24 14:50:00,78.4,49.8,30.33,NE,45,5.1,11.8,37,0.00,,,0.00,WUHU216HW,2013-04-24 12:50:00,
2013-04-24 14:57:00,78.9,50.3,30.32,SE,135,6.9,11.8,37,0.00,,,0.00,WUHU216HW,2013-04-24 12:57:00,
2013-04-24 15:02:00,78.6,50.3,30.32,NE,45,4.6,6.9,38,0.00,,,0.00,WUHU216HW,2013-04-24 13:02:00,
2013-04-24 15:07:00,78.4,50.6,30.32,East,94,9.6,15.8,38,0.00,,,0.00,WUHU216HW,2013-04-24 13:07:00,
2013-04-24 15:12:00,78.4,50.6,30.32,NE,45,10.2,15.8,38,0.00,,,0.00,WUHU216HW,2013-04-24 13:12:00,
2013-04-24 15:17:00,78.0,50.3,30.32,ESE,113,6.4,12.9,38,0.00,,,0.00,WUHU216HW,2013-04-24 13:17:00,
2013-04-24 15:22:00,77.7,50.7,30.32,NE,45,7.3,12.9,39,0.00,,,0.00,WUHU216HW,2013-04-24 13:22:00,
2013-04-24 15:27:00,78.0,51.8,30.32,SE,135,4.0,8.9,40,0.00,,,0.00,WUHU216HW,2013-04-24 13:27:00,
2013-04-24 15:32:00,78.0,51.0,30.32,East,90,10.9,12.5,39,0.00,,,0.00,WUHU216HW,2013-04-24 13:32:00,
2013-04-24 15:37:00,77.3,50.4,30.32,ENE,68,3.5,12.5,39,0.00,,,0.00,WUHU216HW,2013-04-24 13:37:00,
2013-04-24 15:42:00,78.0,51.8,30.31,East,79,5.9,10.0,40,0.00,,,0.00,WUHU216HW,2013-04-24 13:42:00,
2013-04-24 15:47:00,77.7,51.5,30.31,NNE,23,8.7,13.6,40,0.00,,,0.00,WUHU216HW,2013-04-24 13:47:00,
2013-04-24 15:52:00,77.7,51.5,30.31,East,98,5.7,14.5,40,0.00,,,0.00,WUHU216HW,2013-04-24 13:52:00,
2013-04-24 15:57:00,78.0,52.4,30.31,East,90,3.8,14.5,41,0.00,,,0.00,WUHU216HW,2013-04-24 13:57:00,
2013-04-24 16:02:00,78.0,51.8,30.31,ENE,68,10.0,11.8,40,0.00,,,0.00,WUHU216HW,2013-04-24 14:02:00,
2013-04-24 16:07:00,77.9,51.7,30.31,ESE,107,6.6,11.8,40,0.00,,,0.00,WUHU216HW,2013-04-24 14:07:00,
2013-04-24 16:12:00,77.7,52.1,30.30,East,88,6.4,8.2,41,0.00,,,0.00,WUHU216HW,2013-04-24 14:12:00,
2013-04-24 16:17:00,77.3,51.8,30.30,East,90,8.0,8.9,42,0.00,,,0.00,WUHU216HW,2013-04-24 14:17:00,
2013-04-24 16:22:00,76.8,51.9,30.30,ENE,71,13.7,15.8,42,0.00,,,0.00,WUHU216HW,2013-04-24 14:22:00,
2013-04-24 16:27:00,76.8,51.9,30.30,East,90,10.1,15.8,42,0.00,,,0.00,WUHU216HW,2013-04-24 14:27:00,
2013-04-24 16:32:00,76.6,52.4,30.30,NNW,340,4.0,15.4,43,0.00,,,0.00,WUHU216HW,2013-04-24 14:32:00,
2013-04-24 16:37:00,76.4,52.2,30.30,East,90,6.0,15.4,43,0.00,,,0.00,WUHU216HW,2013-04-24 14:37:00,
2013-04-24 16:42:00,76.8,51.9,30.30,ESE,122,5.9,14.5,42,0.00,,,0.00,WUHU216HW,2013-04-24 14:42:00,
2013-04-24 16:47:00,76.6,52.4,30.30,ESE,113,7.8,9.3,43,0.00,,,0.00,WUHU216HW,2013-04-24 14:47:00,
2013-04-24 16:52:00,76.4,52.2,30.30,ENE,71,4.4,19.0,43,0.00,,,0.00,WUHU216HW,2013-04-24 14:52:00,
2013-04-24 16:57:00,76.4,51.6,30.30,ENE,68,9.8,13.8,42,0.00,,,0.00,WUHU216HW,2013-04-24 14:57:00,
2013-04-24 17:03:00,76.2,51.4,30.29,ESE,113,15.6,15.6,42,0.00,,,0.00,WUHU216HW,2013-04-24 15:03:00,
2013-04-24 17:09:00,76.2,51.4,30.30,ESE,113,4.9,15.6,42,0.00,,,0.00,WUHU216HW,2013-04-24 15:09:00,
2013-04-24 17:14:00,76.6,51.8,30.30,ESE,113,10.3,16.5,42,0.00,,,0.00,WUHU216HW,2013-04-24 15:14:00,
2013-04-24 17:19:00,76.1,51.9,30.29,ENE,76,9.4,16.5,43,0.00,,,0.00,WUHU216HW,2013-04-24 15:19:00,
2013-04-24 17:25:00,75.9,51.7,30.30,ENE,68,14.5,14.5,43,0.00,,,0.00,WUHU216HW,2013-04-24 15:25:00,
2013-04-24 17:30:00,75.3,52.5,30.30,East,90,6.9,14.5,45,0.00,,,0.00,WUHU216HW,2013-04-24 15:30:00,
2013-04-24 17:35:00,75.3,52.5,30.30,SSE,158,5.5,9.6,45,0.00,,,0.00,WUHU216HW,2013-04-24 15:35:00,
2013-04-24 17:40:00,75.3,52.5,30.29,ESE,104,4.1,14.3,45,0.00,,,0.00,WUHU216HW,2013-04-24 15:40:00,
2013-04-24 17:45:00,75.0,52.3,30.29,ENE,68,13.4,14.3,45,0.00,,,0.00,WUHU216HW,2013-04-24 15:45:00,
2013-04-24 17:50:00,75.0,52.7,30.29,NE,45,15.8,18.3,46,0.00,,,0.00,WUHU216HW,2013-04-24 15:50:00,
2013-04-24 17:56:00,74.8,52.5,30.29,SE,135,8.9,18.3,46,0.00,,,0.00,WUHU216HW,2013-04-24 15:56:00,
2013-04-24 18:01:00,74.6,52.4,30.29,East,90,13.6,13.6,46,0.00,,,0.00,WUHU216HW,2013-04-24 16:01:00,
2013-04-24 18:06:00,74.4,52.2,30.29,ENE,68,11.4,13.6,46,0.00,,,0.00,WUHU216HW,2013-04-24 16:06:00,
2013-04-24 18:11:00,74.3,52.6,30.29,ENE,68,17.0,17.0,47,0.00,,,0.00,WUHU216HW,2013-04-24 16:11:00,
2013-04-24 18:16:00,73.9,52.3,30.29,East,90,12.7,17.0,47,0.00,,,0.00,WUHU216HW,2013-04-24 16:16:00,
2013-04-24 18:21:00,73.7,52.1,30.29,SE,125,8.9,12.7,47,0.00,,,0.00,WUHU216HW,2013-04-24 16:21:00,
2013-04-24 18:26:00,73.7,52.1,30.29,East,90,10.9,17.2,47,0.00,,,0.00,WUHU216HW,2013-04-24 16:26:00,
2013-04-24 18:31:00,73.9,52.3,30.29,East,86,9.8,17.2,47,0.00,,,0.00,WUHU216HW,2013-04-24 16:31:00,
2013-04-24 18:36:00,73.5,52.5,30.29,East,80,8.1,11.6,48,0.00,,,0.00,WUHU216HW,2013-04-24 16:36:00,
2013-04-24 18:41:00,73.2,52.2,30.29,SE,135,8.5,10.5,48,0.00,,,0.00,WUHU216HW,2013-04-24 16:41:00,
2013-04-24 18:46:00,73.0,52.6,30.30,East,90,10.7,10.7,49,0.00,,,0.00,WUHU216HW,2013-04-24 16:46:00,
2013-04-24 18:51:00,72.6,52.3,30.30,ESE,116,8.4,11.6,49,0.00,,,0.00,WUHU216HW,2013-04-24 16:51:00,
2013-04-24 18:56:00,72.3,52.0,30.30,ENE,68,13.8,13.8,49,0.00,,,0.00,WUHU216HW,2013-04-24 16:56:00,
2013-04-24 19:01:00,72.1,52.4,30.30,NE,45,8.0,13.8,50,0.00,,,0.00,WUHU216HW,2013-04-24 17:01:00,
2013-04-24 19:06:00,71.9,52.3,30.30,WSW,248,8.2,11.1,50,0.00,,,0.00,WUHU216HW,2013-04-24 17:06:00,
2013-04-24 19:11:00,71.7,52.6,30.30,SSW,203,4.6,11.6,51,0.00,,,0.00,WUHU216HW,2013-04-24 17:11:00,
2013-04-24 19:16:00,71.4,52.3,30.30,East,90,12.8,17.4,51,0.00,,,0.00,WUHU216HW,2013-04-24 17:16:00,
2013-04-24 19:21:00,71.4,52.3,30.30,ENE,62,12.3,18.1,51,0.00,,,0.00,WUHU216HW,2013-04-24 17:21:00,
2013-04-24 19:26:00,71.2,52.6,30.29,East,90,6.4,18.1,52,0.00,,,0.00,WUHU216HW,2013-04-24 17:26:00,
2013-04-24 19:31:00,71.2,52.6,30.29,North,0,0.0,10.0,52,0.00,,,0.00,WUHU216HW,2013-04-24 17:31:00,
2013-04-24 19:36:00,71.2,52.6,30.29,SSW,212,4.1,13.4,52,0.00,,,0.00,WUHU216HW,2013-04-24 17:36:00,
2013-04-24 19:41:00,71.2,52.6,30.30,ESE,119,5.4,13.4,52,0.00,,,0.00,WUHU216HW,2013-04-24 17:41:00,
2013-04-24 19:46:00,71.2,53.1,30.30,ESE,113,9.5,14.3,53,0.00,,,0.00,WUHU216HW,2013-04-24 17:46:00,
2013-04-24 19:51:00,70.8,52.8,30.30,East,93,11.6,14.3,53,0.00,,,0.00,WUHU216HW,2013-04-24 17:51:00,
2013-04-24 19:56:00,70.8,52.8,30.30,SE,135,6.7,13.1,53,0.00,,,0.00,WUHU216HW,2013-04-24 17:56:00,
2013-04-24 20:01:00,70.8,52.8,30.30,NE,45,11.6,13.1,53,0.00,,,0.00,WUHU216HW,2013-04-24 18:01:00,
2013-04-24 20:06:00,70.7,52.6,30.30,East,90,9.8,13.1,53,0.00,,,0.00,WUHU216HW,2013-04-24 18:06:00,
2013-04-24 20:11:00,70.7,53.1,30.30,East,90,15.2,15.2,54,0.00,,,0.00,WUHU216HW,2013-04-24 18:11:00,
2013-04-24 20:16:00,70.5,53.0,30.30,SSE,153,5.6,15.2,54,0.00,,,0.00,WUHU216HW,2013-04-24 18:16:00,
2013-04-24 20:21:00,70.5,53.0,30.30,ENE,68,12.3,13.1,54,0.00,,,0.00,WUHU216HW,2013-04-24 18:21:00,
2013-04-24 20:26:00,70.3,53.0,30.30,SSE,158,5.3,12.3,54,0.00,,,0.00,WUHU216HW,2013-04-24 18:26:00,
2013-04-24 20:31:00,70.5,53.0,30.30,ESE,113,14.0,14.0,54,0.00,,,0.00,WUHU216HW,2013-04-24 18:31:00,
2013-04-24 20:36:00,70.7,52.6,30.30,SE,135,3.1,14.0,53,0.00,,,0.00,WUHU216HW,2013-04-24 18:36:00,
2013-04-24 20:41:00,70.5,52.5,30.31,ENE,77,7.2,10.2,53,0.00,,,0.00,WUHU216HW,2013-04-24 18:41:00,
2013-04-24 20:46:00,70.5,52.5,30.31,East,90,7.8,10.2,53,0.00,,,0.00,WUHU216HW,2013-04-24 18:46:00,
2013-04-24 20:51:00,70.3,52.3,30.31,SE,135,6.0,7.8,53,0.00,,,0.00,WUHU216HW,2013-04-24 18:51:00,
2013-04-24 20:56:00,70.3,52.3,30.31,North,0,0.0,7.1,53,0.00,,,0.00,WUHU216HW,2013-04-24 18:56:00,
2013-04-24 21:01:00,70.5,52.5,30.31,NNE,23,3.5,7.1,53,0.00,,,0.00,WUHU216HW,2013-04-24 19:01:00,
2013-04-24 21:06:00,70.3,52.3,30.31,East,90,2.6,4.0,53,0.00,,,0.00,WUHU216HW,2013-04-24 19:06:00,
2013-04-24 21:11:00,70.1,52.7,30.32,SW,225,1.5,2.6,54,0.00,,,0.00,WUHU216HW,2013-04-24 19:11:00,
2013-04-24 21:16:00,69.9,52.5,30.32,SSW,203,1.3,2.4,54,0.00,,,0.00,WUHU216HW,2013-04-24 19:16:00,
2013-04-24 21:21:00,69.6,52.7,30.32,SSW,203,0.0,2.4,55,0.00,,,0.00,WUHU216HW,2013-04-24 19:21:00,
2013-04-24 21:26:00,69.4,52.8,30.32,East,80,1.5,1.7,56,0.00,,,0.00,WUHU216HW,2013-04-24 19:26:00,
2013-04-24 21:31:00,68.7,52.3,30.32,North,0,0.0,1.7,56,0.00,,,0.00,WUHU216HW,2013-04-24 19:31:00,
2013-04-24 21:36:00,68.3,52.4,30.32,SSE,158,0.0,0.0,57,0.00,,,0.00,WUHU216HW,2013-04-24 19:36:00,
2013-04-24 21:41:00,67.8,52.4,30.32,WSW,248,0.0,1.3,58,0.00,,,0.00,WUHU216HW,2013-04-24 19:41:00,
2013-04-24 21:46:00,67.8,52.9,30.32,ESE,113,1.5,1.5,59,0.00,,,0.00,WUHU216HW,2013-04-24 19:46:00,
2013-04-24 21:51:00,67.2,52.9,30.32,SSW,203,2.0,2.0,60,0.00,,,0.00,WUHU216HW,2013-04-24 19:51:00,
2013-04-24 21:56:00,66.9,53.0,30.32,ESE,113,1.1,2.0,61,0.00,,,0.00,WUHU216HW,2013-04-24 19:56:00,
2013-04-24 22:01:00,66.7,52.8,30.32,SE,135,0.0,1.1,61,0.00,,,0.00,WUHU216HW,2013-04-24 20:01:00,
2013-04-24 22:07:00,66.2,52.8,30.32,ESE,113,0.0,1.5,62,0.00,,,0.00,WUHU216HW,2013-04-24 20:07:00,
2013-04-24 22:12:00,65.8,52.8,30.32,ESE,113,0.0,1.5,63,0.00,,,0.00,WUHU216HW,2013-04-24 20:12:00,
2013-04-24 22:17:00,65.8,52.8,30.31,ESE,113,0.0,0.0,63,0.00,,,0.00,WUHU216HW,2013-04-24 20:17:00,
2013-04-24 22:22:00,65.6,53.1,30.31,East,97,1.3,2.4,64,0.00,,,0.00,WUHU216HW,2013-04-24 20:22:00,
2013-04-24 22:27:00,65.4,53.3,30.31,East,90,0.0,2.4,65,0.00,,,0.00,WUHU216HW,2013-04-24 20:27:00,
2013-04-24 22:32:00,65.3,53.1,30.31,SSE,158,0.0,0.6,65,0.00,,,0.00,WUHU216HW,2013-04-24 20:32:00,
2013-04-24 22:37:00,65.4,52.9,30.31,South,180,2.2,2.2,64,0.00,,,0.00,WUHU216HW,2013-04-24 20:37:00,
2013-04-24 22:42:00,65.8,53.2,30.31,South,180,2.2,2.2,64,0.00,,,0.00,WUHU216HW,2013-04-24 20:42:00,
2013-04-24 22:49:00,65.8,53.2,30.31,SE,135,2.0,2.2,64,0.00,,,0.00,WUHU216HW,2013-04-24 20:49:00,
2013-04-24 22:54:00,66.0,53.4,30.31,ESE,113,2.0,2.4,64,0.00,,,0.00,WUHU216HW,2013-04-24 20:54:00,
2013-04-24 22:59:00,65.8,53.2,30.31,ESE,113,1.3,2.4,64,0.00,,,0.00,WUHU216HW,2013-04-24 20:59:00,
2013-04-24 23:04:00,65.6,53.1,30.32,East,90,0.0,2.4,64,0.00,,,0.00,WUHU216HW,2013-04-24 21:04:00,
2013-04-24 23:09:00,65.3,53.4,30.31,ESE,113,2.0,2.0,66,0.00,,,0.00,WUHU216HW,2013-04-24 21:09:00,
2013-04-24 23:14:00,64.9,53.6,30.31,North,0,0.0,2.0,67,0.00,,,0.00,WUHU216HW,2013-04-24 21:14:00,
2013-04-24 23:19:00,64.5,53.3,30.31,ESE,113,2.9,2.9,67,0.00,,,0.00,WUHU216HW,2013-04-24 21:19:00,
2013-04-24 23:24:00,64.4,53.2,30.31,SE,135,0.0,2.9,67,0.00,,,0.00,WUHU216HW,2013-04-24 21:24:00,
2013-04-24 23:29:00,64.2,53.0,30.31,ESE,113,1.3,2.0,67,0.00,,,0.00,WUHU216HW,2013-04-24 21:29:00,
2013-04-24 23:34:00,64.2,53.0,30.30,West,270,0.0,1.3,67,0.00,,,0.00,WUHU216HW,2013-04-24 21:34:00,
2013-04-24 23:40:00,64.2,53.8,30.30,East,90,3.1,3.1,69,0.00,,,0.00,WUHU216HW,2013-04-24 21:40:00,
2013-04-24 23:45:00,63.6,53.3,30.30,East,99,2.1,3.1,69,0.00,,,0.00,WUHU216HW,2013-04-24 21:45:00,
2013-04-24 23:50:00,64.0,53.7,30.30,South,170,1.4,2.4,69,0.00,,,0.00,WUHU216HW,2013-04-24 21:50:00,
2013-04-24 23:55:00,64.2,53.4,30.30,South,180,2.0,2.2,68,0.00,,,0.00,WUHU216HW,2013-04-24 21:55:00,